createdAt,value
2022-12-08T02:00:07.892Z,21.40
2022-12-08T02:01:10.691Z,15.20
2022-12-08T02:02:13.555Z,15.10
2022-12-08T02:03:22.062Z,16.30
2022-12-08T02:04:24.002Z,19.40
2022-12-08T02:05:34.944Z,19.00
2022-12-08T02:06:41.954Z,16.10
2022-12-08T02:07:45.446Z,14.80
2022-12-08T02:08:48.800Z,16.00
2022-12-08T02:09:53.319Z,14.40
2022-12-08T02:10:55.601Z,13.40
2022-12-08T02:11:59.607Z,13.30
2022-12-08T02:13:04.003Z,9.40
2022-12-08T02:14:07.979Z,12.00
2022-12-08T02:15:10.758Z,11.60
2022-12-08T02:16:34.371Z,10.50
2022-12-08T02:17:46.101Z,10.50
2022-12-08T02:19:29.318Z,9.40
2022-12-08T02:20:42.934Z,11.90
2022-12-08T02:21:48.654Z,12.10
2022-12-08T02:23:00.514Z,12.50
2022-12-08T02:24:15.092Z,12.10
2022-12-08T02:25:27.118Z,12.70
2022-12-08T02:26:45.389Z,12.30
2022-12-08T02:28:12.282Z,12.50
2022-12-08T02:29:20.457Z,10.00
2022-12-08T02:30:37.660Z,12.40
2022-12-08T02:32:01.623Z,11.40
2022-12-08T02:33:27.345Z,11.70
2022-12-08T02:34:39.349Z,10.20
2022-12-08T02:35:50.404Z,10.50
2022-12-08T02:37:11.348Z,12.10
2022-12-08T02:38:23.017Z,10.30
2022-12-08T02:39:37.629Z,11.20
2022-12-08T02:40:46.450Z,11.90
2022-12-08T02:41:55.005Z,9.30
2022-12-08T02:43:03.298Z,10.70
2022-12-08T02:44:23.769Z,10.60
2022-12-08T02:45:35.382Z,9.20
2022-12-08T02:46:44.745Z,11.20
2022-12-08T02:47:47.648Z,10.80
2022-12-08T02:48:52.277Z,9.00
2022-12-08T02:49:55.191Z,12.30
2022-12-08T02:50:58.244Z,12.91
2022-12-08T02:52:16.475Z,9.36
2022-12-08T02:53:19.336Z,9.00
2022-12-08T02:54:21.402Z,9.73
2022-12-08T02:55:30.009Z,9.40
2022-12-08T02:57:04.782Z,10.40
2022-12-08T02:58:22.503Z,11.40
2022-12-08T02:59:43.106Z,11.50
2022-12-08T03:01:14.930Z,8.60
2022-12-08T03:02:32.856Z,11.20
2022-12-08T03:03:38.581Z,10.00
2022-12-08T03:04:56.294Z,13.20
2022-12-08T03:06:07.941Z,11.60
2022-12-08T03:08:36.203Z,10.60
2022-12-08T03:09:56.792Z,10.80
2022-12-08T03:11:11.303Z,9.40
2022-12-08T03:12:26.595Z,10.80
2022-12-08T03:13:50.139Z,11.70
2022-12-08T03:14:58.341Z,11.90
2022-12-08T03:16:04.005Z,12.80
2022-12-08T03:17:07.903Z,10.40
2022-12-08T03:18:13.495Z,10.10
2022-12-08T03:19:22.193Z,12.10
2022-12-08T03:20:27.187Z,8.50
2022-12-08T03:21:31.710Z,10.90
2022-12-08T03:22:33.844Z,12.80
2022-12-08T03:23:38.246Z,12.50
2022-12-08T03:24:43.181Z,13.00
2022-12-08T03:26:10.344Z,13.50
2022-12-08T03:27:15.963Z,15.60
2022-12-08T03:28:18.752Z,12.90
2022-12-08T03:29:21.073Z,13.00
2022-12-08T03:30:23.232Z,13.80
2022-12-08T03:31:28.228Z,13.60
2022-12-08T03:32:53.942Z,4.20
2022-12-08T03:33:58.563Z,12.70
2022-12-08T03:35:07.737Z,9.70
2022-12-08T03:36:12.183Z,15.10
2022-12-08T03:37:14.331Z,14.10
2022-12-08T03:38:17.501Z,13.90
2022-12-08T03:39:20.466Z,15.40
2022-12-08T03:40:22.962Z,13.00
2022-12-08T03:41:25.262Z,14.20
2022-12-08T03:42:27.164Z,13.70
2022-12-08T03:43:28.759Z,12.44
2022-12-08T03:44:30.711Z,12.67
2022-12-08T03:45:32.906Z,12.70
2022-12-08T03:46:34.797Z,12.90
2022-12-08T03:47:37.482Z,11.67
2022-12-08T03:48:39.856Z,12.60
2022-12-08T03:49:41.638Z,14.90
2022-12-08T03:50:43.470Z,8.56
2022-12-08T03:51:45.277Z,12.56
2022-12-08T03:52:47.035Z,12.89
2022-12-08T03:53:49.446Z,11.89
2022-12-08T03:54:51.785Z,10.90
2022-12-08T03:55:54.546Z,13.80
2022-12-08T03:56:57.214Z,9.50
2022-12-08T03:57:58.911Z,12.00
2022-12-08T03:59:01.028Z,11.11
2022-12-08T04:00:05.986Z,13.00
2022-12-08T04:01:08.099Z,11.60
2022-12-08T04:02:10.080Z,11.70
2022-12-08T04:03:12.030Z,10.44
2022-12-08T04:04:14.178Z,10.60
2022-12-08T04:05:16.188Z,12.78
2022-12-08T04:06:19.177Z,13.60
2022-12-08T04:07:21.184Z,11.20
2022-12-08T04:08:23.161Z,12.70
2022-12-08T04:09:26.111Z,7.70
2022-12-08T04:10:28.574Z,10.73
2022-12-08T04:11:30.481Z,11.90
2022-12-08T04:12:33.343Z,14.67
2022-12-08T04:13:36.666Z,14.00
2022-12-08T04:14:38.615Z,17.10
2022-12-08T04:15:46.850Z,16.00
2022-12-08T04:16:49.087Z,16.30
2022-12-08T04:17:51.000Z,15.67
2022-12-08T04:18:53.609Z,14.30
2022-12-08T04:19:56.170Z,12.60
2022-12-08T04:20:58.195Z,11.20
2022-12-08T04:22:02.121Z,13.89
2022-12-08T04:23:05.011Z,14.90
2022-12-08T04:24:07.286Z,14.50
2022-12-08T04:25:09.541Z,13.70
2022-12-08T04:26:12.664Z,12.40
2022-12-08T04:27:14.586Z,12.10
2022-12-08T04:28:17.108Z,11.89
2022-12-08T04:29:19.171Z,12.80
2022-12-08T04:30:20.978Z,9.90
2022-12-08T04:31:23.101Z,11.89
2022-12-08T04:32:25.166Z,12.20
2022-12-08T04:33:27.006Z,12.56
2022-12-08T04:34:28.992Z,9.44
2022-12-08T04:35:31.018Z,13.22
2022-12-08T04:36:33.472Z,13.60
2022-12-08T04:37:36.435Z,13.30
2022-12-08T04:38:38.849Z,13.45
2022-12-08T04:39:40.732Z,11.60
2022-12-08T04:40:42.763Z,15.11
2022-12-08T04:41:44.388Z,14.33
2022-12-08T04:42:47.306Z,14.67
2022-12-08T04:43:49.179Z,13.00
2022-12-08T04:44:50.833Z,13.89
2022-12-08T04:45:52.576Z,14.22
2022-12-08T04:46:55.581Z,13.78
2022-12-08T04:47:58.786Z,14.90
2022-12-08T04:49:01.096Z,13.60
2022-12-08T04:50:05.407Z,10.80
2022-12-08T04:51:16.430Z,15.80
2022-12-08T04:52:18.158Z,15.90
2022-12-08T04:53:20.569Z,14.67
2022-12-08T04:54:22.375Z,11.30
2022-12-08T04:55:24.251Z,15.00
2022-12-08T04:56:26.652Z,15.10
2022-12-08T04:57:28.812Z,7.33
2022-12-08T04:58:31.169Z,16.60
2022-12-08T04:59:33.361Z,14.50
2022-12-08T05:00:35.424Z,12.70
2022-12-08T05:01:37.243Z,12.89
2022-12-08T05:02:40.370Z,14.40
2022-12-08T05:03:42.327Z,15.91
2022-12-08T05:04:44.808Z,14.00
2022-12-08T05:05:46.518Z,14.80
2022-12-08T05:06:48.556Z,14.22
2022-12-08T05:07:50.432Z,11.89
2022-12-08T05:08:52.403Z,8.30
2022-12-08T05:09:54.162Z,12.89
2022-12-08T05:11:02.392Z,13.50
2022-12-08T05:12:04.450Z,12.80
2022-12-08T05:13:06.741Z,12.80
2022-12-08T05:14:11.520Z,12.60
2022-12-08T05:15:13.539Z,13.30
2022-12-08T05:16:15.900Z,12.70
2022-12-08T05:17:18.371Z,13.40
2022-12-08T05:18:20.051Z,9.70
2022-12-08T05:19:22.171Z,12.44
2022-12-08T05:20:24.390Z,12.60
2022-12-08T05:21:26.297Z,12.90
2022-12-08T05:22:28.033Z,12.67
2022-12-08T05:23:30.255Z,10.67
2022-12-08T05:24:32.158Z,12.90
2022-12-08T05:25:33.994Z,13.44
2022-12-08T05:26:36.430Z,12.89
2022-12-08T05:27:38.119Z,14.20
2022-12-08T05:28:41.785Z,15.33
2022-12-08T05:29:44.758Z,15.30
2022-12-08T05:30:47.160Z,16.10
2022-12-08T05:31:49.200Z,13.00
2022-12-08T05:32:51.162Z,14.10
2022-12-08T05:33:53.652Z,12.89
2022-12-08T05:34:55.584Z,12.40
2022-12-08T05:35:57.299Z,13.89
2022-12-08T05:36:59.162Z,13.78
2022-12-08T05:38:00.859Z,13.20
2022-12-08T05:39:03.002Z,13.11
2022-12-08T05:40:06.261Z,1.60
2022-12-08T05:41:11.185Z,15.10
2022-12-08T05:42:13.153Z,12.00
2022-12-08T05:43:14.903Z,17.89
2022-12-08T05:44:16.722Z,19.67
2022-12-08T05:45:18.517Z,22.22
2022-12-08T05:46:21.609Z,23.00
2022-12-08T05:47:23.572Z,21.60
2022-12-08T05:48:25.274Z,20.33
2022-12-08T05:49:27.108Z,21.33
2022-12-08T05:50:28.955Z,18.56
2022-12-08T05:51:31.169Z,16.44
2022-12-08T05:52:32.876Z,16.00
2022-12-08T05:53:35.441Z,14.89
2022-12-08T05:54:37.351Z,14.30
2022-12-08T05:55:39.105Z,14.44
2022-12-08T05:56:40.974Z,14.11
2022-12-08T05:57:44.027Z,13.30
2022-12-08T05:58:46.260Z,13.60
2022-12-08T05:59:48.953Z,13.10
2022-12-08T06:00:51.245Z,14.45
2022-12-08T06:01:53.082Z,12.78
2022-12-08T06:02:55.078Z,13.67
2022-12-08T06:03:59.070Z,9.60
2022-12-08T06:05:02.012Z,16.10
2022-12-08T06:06:04.435Z,15.09
2022-12-08T06:07:14.541Z,15.20
2022-12-08T06:08:13.721Z,12.30
2022-12-08T06:09:15.757Z,14.00
2022-12-08T06:10:17.868Z,14.60
2022-12-08T06:11:26.191Z,12.30
2022-12-08T06:12:28.424Z,14.50
2022-12-08T06:13:30.614Z,14.40
2022-12-08T06:14:32.806Z,12.30
2022-12-08T06:15:36.431Z,15.80
2022-12-08T06:16:38.725Z,14.10
2022-12-08T06:17:40.903Z,9.20
2022-12-08T06:18:43.530Z,15.10
2022-12-08T06:19:45.889Z,14.40
2022-12-08T06:20:47.673Z,13.70
2022-12-08T06:21:49.540Z,12.44
2022-12-08T06:22:51.977Z,13.11
2022-12-08T06:23:54.642Z,14.00
2022-12-08T06:24:56.543Z,14.00
2022-12-08T06:26:10.668Z,14.22
2022-12-08T06:27:12.503Z,13.00
2022-12-08T06:28:14.608Z,13.11
2022-12-08T06:29:16.527Z,11.10
2022-12-08T06:30:19.082Z,10.70
2022-12-08T06:31:23.598Z,12.50
2022-12-08T06:32:27.599Z,12.10
2022-12-08T06:33:29.673Z,13.20
2022-12-08T06:34:31.504Z,14.00
2022-12-08T06:35:33.140Z,14.00
2022-12-08T06:36:35.061Z,13.78
2022-12-08T06:37:37.776Z,17.56
2022-12-08T06:38:43.629Z,14.00
2022-12-08T11:26:43.470Z,24.50
2022-12-08T11:27:48.256Z,20.60
2022-12-08T11:28:50.119Z,26.60
2022-12-08T11:29:52.143Z,22.00
2022-12-08T11:31:04.272Z,24.33
2022-12-08T11:32:10.690Z,17.70
2022-12-08T11:33:22.431Z,16.10
2022-12-08T11:34:31.211Z,14.10
2022-12-08T11:35:42.141Z,10.10
2022-12-08T11:36:46.236Z,12.50
2022-12-08T11:37:48.593Z,18.30
2022-12-08T11:38:54.223Z,14.80
2022-12-08T11:39:59.724Z,12.90
2022-12-08T11:41:16.002Z,12.10
2022-12-08T11:42:20.087Z,18.20
2022-12-08T11:43:31.360Z,15.90
2022-12-08T11:44:39.829Z,13.90
2022-12-08T11:45:42.395Z,11.50
2022-12-08T11:46:57.774Z,13.91
2022-12-08T11:48:15.708Z,15.30
2022-12-08T11:49:18.108Z,11.00
2022-12-08T11:50:33.067Z,13.50
2022-12-08T11:51:42.573Z,14.80
2022-12-08T11:52:50.078Z,14.00
2022-12-08T11:54:01.436Z,12.00
2022-12-08T11:55:37.528Z,13.50
2022-12-08T11:56:47.065Z,12.90
2022-12-08T11:57:51.160Z,14.20
2022-12-08T11:59:02.399Z,13.80
2022-12-08T12:00:08.330Z,15.50
2022-12-08T12:01:21.244Z,15.70
2022-12-08T12:02:27.114Z,15.60
2022-12-08T12:03:36.301Z,13.30
2022-12-08T12:04:51.613Z,13.00
2022-12-08T12:06:46.539Z,13.70
2022-12-08T12:07:52.837Z,15.20
2022-12-08T12:09:18.897Z,12.00
2022-12-08T12:10:33.690Z,13.20
2022-12-08T12:11:42.253Z,9.00
2022-12-08T12:13:10.930Z,13.50
2022-12-08T12:14:48.719Z,12.40
2022-12-08T12:16:06.613Z,7.40
2022-12-08T12:17:25.513Z,12.80
2022-12-08T12:18:31.125Z,11.70
2022-12-08T12:19:36.537Z,11.30
2022-12-08T12:21:01.774Z,13.50
2022-12-08T12:22:10.013Z,14.20
2022-12-08T12:23:25.397Z,13.00
2022-12-08T12:24:36.017Z,10.30
2022-12-08T12:25:40.358Z,13.10
2022-12-08T12:27:09.825Z,13.50
2022-12-08T12:28:13.597Z,12.60
2022-12-08T12:29:19.266Z,13.30
2022-12-08T12:30:24.911Z,15.20
2022-12-08T12:31:30.606Z,14.60
2022-12-08T12:32:48.435Z,9.10
2022-12-08T12:33:54.837Z,13.10
2022-12-08T12:35:00.220Z,15.20
2022-12-08T12:36:06.039Z,14.50
2022-12-08T12:37:11.652Z,16.60
2022-12-08T12:38:27.145Z,17.70
2022-12-08T12:39:31.703Z,14.10
2022-12-08T12:40:38.449Z,17.30
2022-12-08T12:41:49.840Z,14.40
2022-12-08T12:42:58.737Z,14.00
2022-12-08T12:44:10.428Z,13.00
2022-12-08T12:45:19.116Z,14.10
2022-12-08T12:46:30.937Z,13.20
2022-12-08T12:47:56.285Z,14.50
2022-12-08T12:48:59.344Z,14.90
2022-12-08T12:50:08.298Z,14.30
2022-12-08T12:51:32.579Z,13.90
2022-12-08T12:52:36.582Z,16.10
2022-12-08T12:53:42.240Z,14.80
2022-12-08T12:54:47.477Z,13.00
2022-12-08T12:55:58.514Z,14.60
2022-12-08T12:57:16.727Z,14.60
2022-12-08T12:58:31.166Z,16.80
2022-12-08T12:59:46.976Z,16.10
2022-12-08T13:00:49.384Z,8.90
2022-12-08T13:01:55.792Z,14.89
2022-12-08T13:02:58.475Z,15.40
2022-12-08T13:04:08.902Z,19.30
2022-12-08T13:05:17.487Z,18.89
2022-12-08T13:06:26.945Z,8.64
2022-12-08T13:07:32.644Z,14.10
2022-12-08T13:08:34.610Z,13.50
2022-12-08T13:09:39.572Z,13.50
2022-12-08T13:10:48.128Z,14.10
2022-12-08T13:12:02.622Z,8.40
2022-12-08T13:13:14.871Z,15.30
2022-12-08T13:15:49.862Z,16.20
2022-12-08T13:16:55.429Z,14.00
2022-12-08T13:17:58.015Z,14.40
2022-12-08T13:19:03.702Z,16.70
2022-12-08T13:20:08.916Z,16.40
2022-12-08T13:21:14.420Z,17.50
2022-12-08T13:22:50.788Z,17.10
2022-12-08T13:24:14.794Z,15.20
2022-12-08T13:25:40.149Z,17.80
2022-12-08T13:26:48.906Z,16.30
2022-12-08T13:27:54.165Z,15.10
2022-12-08T13:29:04.046Z,17.30
2022-12-08T13:30:42.906Z,15.20
2022-12-08T13:31:52.084Z,15.10
2022-12-08T13:34:06.043Z,15.00
2022-12-08T13:35:11.000Z,15.60
2022-12-08T13:36:23.495Z,15.40
2022-12-08T13:37:54.461Z,14.20
2022-12-08T13:38:55.692Z,14.10
2022-12-08T13:40:10.594Z,12.50
2022-12-08T13:41:19.586Z,14.20
2022-12-08T13:42:28.089Z,13.50
2022-12-08T13:44:10.607Z,14.90
2022-12-08T13:45:33.426Z,15.60
2022-12-08T13:47:03.222Z,16.10
2022-12-08T13:47:35.323Z,14.10
2022-12-08T13:55:49.688Z,19.00
2022-12-08T13:57:10.997Z,16.90
2022-12-08T13:58:28.588Z,18.00
2022-12-08T13:59:34.449Z,14.80
2022-12-08T14:00:36.645Z,12.80
2022-12-08T14:01:42.149Z,16.56
2022-12-08T14:02:48.421Z,15.00
2022-12-08T14:05:18.132Z,13.20
2022-12-08T14:06:13.223Z,15.00
2022-12-08T14:07:15.191Z,14.80
2022-12-08T14:08:57.801Z,16.20
2022-12-08T14:09:36.471Z,12.00
2022-12-08T14:10:38.800Z,5.20
2022-12-08T14:11:46.797Z,13.60
2022-12-08T14:12:58.308Z,13.30
2022-12-08T14:14:03.738Z,14.40
2022-12-08T14:15:07.424Z,15.70
2022-12-08T14:16:13.145Z,16.40
2022-12-08T14:17:18.416Z,17.80
2022-12-08T14:18:27.019Z,14.90
2022-12-08T14:19:31.733Z,15.20
2022-12-08T14:20:52.029Z,12.80
2022-12-08T14:21:38.767Z,12.60
2022-12-08T14:22:41.279Z,13.56
2022-12-08T14:23:44.042Z,14.90
2022-12-08T14:24:51.927Z,15.40
2022-12-08T14:25:55.171Z,12.80
2022-12-08T14:27:00.283Z,13.10
2022-12-08T14:28:04.061Z,11.30
2022-12-08T14:29:08.157Z,14.20
2022-12-08T14:30:17.492Z,14.80
2022-12-08T14:31:19.711Z,13.60
2022-12-08T14:32:26.301Z,12.10
2022-12-08T14:33:30.211Z,12.90
2022-12-08T14:34:35.790Z,11.40
2022-12-08T14:35:38.720Z,12.10
2022-12-08T14:36:40.859Z,15.73
2022-12-08T14:37:46.548Z,13.10
2022-12-08T14:38:49.981Z,15.30
2022-12-08T14:39:52.995Z,17.00
2022-12-08T14:41:07.640Z,16.70
2022-12-08T18:37:41.268Z,22.10
2022-12-08T18:38:43.662Z,25.30
2022-12-08T18:39:46.096Z,30.50
2022-12-08T18:40:47.896Z,24.30
2022-12-08T18:41:50.352Z,28.56
2022-12-08T18:42:52.797Z,27.50
2022-12-08T18:43:56.653Z,22.90
2022-12-08T18:44:59.681Z,22.20
2022-12-08T18:46:04.971Z,24.50
2022-12-08T18:47:08.508Z,14.10
2022-12-08T18:48:11.741Z,21.10
2022-12-08T18:49:17.052Z,20.89
2022-12-08T18:50:19.204Z,18.10
2022-12-08T18:51:23.502Z,19.00
2022-12-08T18:52:32.279Z,18.60
2022-12-08T18:53:36.451Z,20.20
2022-12-08T18:55:05.061Z,19.70
2022-12-08T18:55:44.490Z,20.60
2022-12-08T18:56:47.267Z,19.70
2022-12-08T18:57:51.139Z,16.60
2022-12-08T18:59:01.277Z,14.22
2022-12-08T18:59:59.876Z,17.60
2022-12-08T19:01:01.641Z,16.00
2022-12-08T19:02:04.664Z,15.00
2022-12-08T19:03:06.880Z,10.30
2022-12-08T19:05:13.436Z,13.30
2022-12-08T19:06:16.998Z,14.70
2022-12-08T19:07:19.771Z,13.50
2022-12-08T19:08:24.415Z,14.30
2022-12-08T19:09:26.839Z,13.10
2022-12-08T19:10:29.632Z,12.70
2022-12-08T19:11:33.329Z,14.09
2022-12-08T19:12:35.395Z,12.50
2022-12-08T19:13:37.496Z,11.40
2022-12-08T19:14:41.236Z,14.30
2022-12-08T19:15:44.990Z,11.80
2022-12-08T19:16:48.679Z,13.90
2022-12-08T19:17:51.497Z,12.30
2022-12-08T19:18:57.194Z,12.70
2022-12-08T19:20:01.475Z,10.20
2022-12-08T19:21:04.081Z,10.82
2022-12-08T19:22:08.024Z,9.80
2022-12-08T19:23:12.906Z,12.10
2022-12-08T19:24:18.575Z,12.20
2022-12-08T19:25:22.691Z,10.10
2022-12-08T19:26:26.196Z,9.30
2022-12-08T19:27:29.087Z,9.70
2022-12-08T19:28:34.771Z,10.55
2022-12-08T19:29:37.397Z,4.10
2022-12-08T19:30:40.428Z,10.60
2022-12-08T19:31:43.206Z,10.40
2022-12-08T19:32:45.767Z,10.40
2022-12-08T19:33:47.759Z,10.20
2022-12-08T19:34:50.141Z,11.33
2022-12-08T19:35:53.870Z,13.60
2022-12-08T19:36:56.702Z,12.50
2022-12-08T19:37:59.046Z,12.30
2022-12-08T19:39:04.598Z,12.70
2022-12-08T19:40:10.184Z,13.20
2022-12-08T19:41:12.759Z,10.80
2022-12-08T19:42:17.795Z,11.10
2022-12-08T19:43:20.950Z,12.00
2022-12-08T19:44:25.555Z,12.20
2022-12-08T19:45:27.956Z,11.20
2022-12-08T19:46:30.332Z,10.30
2022-12-08T19:47:34.355Z,11.30
2022-12-08T19:48:37.389Z,9.70
2022-12-08T19:49:39.639Z,10.91
2022-12-08T19:50:42.366Z,12.40
2022-12-08T19:51:44.465Z,9.27
2022-12-08T19:52:46.313Z,10.78
2022-12-08T19:53:48.190Z,9.67
2022-12-08T19:54:50.281Z,8.50
2022-12-08T19:55:52.563Z,10.20
2022-12-08T19:56:55.827Z,9.20
2022-12-08T19:57:57.559Z,11.40
2022-12-08T19:58:59.776Z,11.78
2022-12-08T20:00:01.637Z,10.20
2022-12-08T20:01:04.553Z,11.78
2022-12-08T20:02:07.917Z,11.18
2022-12-08T20:04:28.336Z,9.90
2022-12-08T20:05:32.506Z,11.20
2022-12-08T20:06:34.883Z,10.50
2022-12-08T20:07:36.855Z,11.70
2022-12-08T20:08:39.566Z,9.56
2022-12-08T20:09:42.607Z,11.45
2022-12-08T20:10:46.067Z,12.20
2022-12-08T20:11:47.799Z,7.50
2022-12-08T20:12:49.966Z,11.44
2022-12-08T20:13:51.781Z,9.10
2022-12-08T20:14:53.691Z,11.22
2022-12-08T20:15:56.132Z,12.56
2022-12-08T20:16:59.414Z,9.82
2022-12-08T20:18:01.743Z,10.50
2022-12-08T20:19:03.656Z,11.10
2022-12-08T20:20:08.987Z,8.70
2022-12-08T20:21:12.006Z,8.70
2022-12-08T20:22:14.330Z,11.70
2022-12-08T20:23:16.629Z,8.20
2022-12-08T20:24:19.646Z,9.70
2022-12-08T20:25:21.611Z,11.09
2022-12-08T20:26:23.726Z,9.70
2022-12-08T20:27:27.051Z,12.22
2022-12-08T20:28:30.126Z,10.10
2022-12-08T20:29:33.011Z,11.30
2022-12-08T20:30:41.063Z,11.64
2022-12-08T20:31:43.654Z,10.10
2022-12-08T20:32:46.249Z,10.30
2022-12-08T20:33:49.219Z,10.10
2022-12-08T20:34:51.059Z,10.73
2022-12-08T20:36:02.297Z,8.89
2022-12-08T20:37:04.359Z,12.10
2022-12-08T20:38:06.811Z,10.78
2022-12-08T20:39:13.462Z,11.60
2022-12-08T20:40:15.634Z,10.90
2022-12-08T20:41:18.433Z,12.30
2022-12-08T20:42:20.482Z,9.27
2022-12-08T20:43:23.286Z,10.22
2022-12-08T20:44:26.745Z,12.40
2022-12-08T20:45:29.010Z,12.00
2022-12-08T20:46:31.336Z,10.30
2022-12-08T20:47:33.349Z,12.10
2022-12-08T20:48:36.699Z,9.80
2022-12-08T20:49:39.276Z,11.30
2022-12-08T20:50:42.322Z,11.40
2022-12-08T20:51:44.128Z,9.55
2022-12-08T20:52:46.076Z,10.56
2022-12-08T20:53:49.035Z,11.30
2022-12-08T20:54:51.113Z,9.00
2022-12-08T20:55:55.603Z,6.67
2022-12-08T20:56:58.750Z,11.70
2022-12-08T20:58:01.964Z,9.10
2022-12-08T20:59:05.188Z,9.30
2022-12-08T21:00:09.150Z,9.50
2022-12-08T21:01:14.532Z,11.00
2022-12-08T21:02:16.810Z,10.80
2022-12-08T21:03:20.305Z,10.40
2022-12-08T21:04:24.171Z,9.60
2022-12-08T21:05:27.504Z,8.10
2022-12-08T21:06:29.603Z,8.70
2022-12-08T21:07:31.411Z,9.67
2022-12-08T21:08:35.474Z,8.33
2022-12-08T21:09:37.732Z,8.30
2022-12-08T21:10:43.968Z,8.40
2022-12-08T21:11:45.724Z,3.30
2022-12-08T21:12:47.933Z,10.10
2022-12-08T21:13:49.771Z,10.20
2022-12-08T21:14:52.127Z,10.80
2022-12-08T21:15:54.661Z,10.80
2022-12-08T21:16:57.631Z,10.70
2022-12-08T21:17:59.877Z,10.50
2022-12-08T21:19:02.080Z,9.90
2022-12-08T21:20:05.815Z,10.80
2022-12-08T21:21:11.605Z,10.10
2022-12-08T21:22:14.358Z,6.80
2022-12-08T21:23:17.426Z,5.50
2022-12-08T21:24:19.736Z,9.90
2022-12-08T21:25:22.888Z,11.90
2022-12-08T21:26:25.142Z,8.90
2022-12-08T21:27:27.624Z,7.10
2022-12-08T21:28:29.540Z,12.20
2022-12-08T21:29:31.965Z,10.44
2022-12-08T21:30:34.309Z,12.00
2022-12-08T21:31:37.244Z,9.10
2022-12-08T21:32:40.669Z,9.90
2022-12-08T21:33:44.196Z,11.20
2022-12-08T21:34:46.242Z,11.50
2022-12-08T21:35:49.059Z,9.22
2022-12-08T21:36:51.342Z,10.80
2022-12-08T21:37:53.297Z,10.70
2022-12-08T21:38:56.615Z,11.50
2022-12-08T21:39:59.073Z,7.90
2022-12-08T21:41:04.744Z,11.20
2022-12-08T21:42:06.762Z,10.30
2022-12-08T21:43:08.731Z,11.10
2022-12-08T21:44:13.774Z,11.30
2022-12-08T21:45:19.135Z,11.60
2022-12-08T21:46:21.267Z,11.90
2022-12-08T21:47:23.946Z,9.80
2022-12-08T21:48:26.408Z,10.50
2022-12-08T21:49:29.143Z,10.00
2022-12-08T21:50:31.492Z,9.09
2022-12-08T21:51:33.813Z,8.00
2022-12-08T21:52:40.572Z,9.10
2022-12-08T21:53:43.059Z,7.50
2022-12-08T21:54:46.129Z,9.80
2022-12-08T21:55:49.358Z,7.30
2022-12-08T21:56:51.988Z,10.10
2022-12-08T21:57:53.806Z,8.30
2022-12-08T21:58:55.640Z,8.56
2022-12-08T21:59:57.677Z,7.44
2022-12-08T22:01:06.323Z,8.50
2022-12-08T22:02:17.949Z,7.80
2022-12-08T22:03:19.562Z,8.20
2022-12-08T22:04:21.876Z,7.40
2022-12-08T22:05:25.440Z,6.10
2022-12-08T22:06:27.628Z,10.00
2022-12-08T22:07:29.656Z,7.50
2022-12-08T22:08:31.920Z,9.44
2022-12-08T22:09:35.432Z,9.10
2022-12-08T22:10:37.491Z,8.70
2022-12-08T22:11:39.249Z,7.78
2022-12-08T22:12:41.146Z,8.33
2022-12-08T22:13:43.789Z,8.78
2022-12-08T22:14:45.729Z,8.80
2022-12-08T22:16:00.602Z,10.22
2022-12-08T22:17:02.893Z,10.30
2022-12-08T22:18:05.323Z,8.80
2022-12-08T22:19:08.184Z,1.50
2022-12-08T22:20:14.994Z,7.90
2022-12-08T22:21:17.647Z,10.30
2022-12-08T22:22:19.665Z,10.50
2022-12-08T22:23:22.100Z,9.40
2022-12-08T22:24:24.898Z,8.90
2022-12-08T22:25:26.863Z,10.00
2022-12-08T22:26:29.033Z,7.10
2022-12-08T22:27:34.357Z,7.90
2022-12-08T22:28:39.792Z,9.70
2022-12-08T22:29:41.800Z,11.40
2022-12-08T22:30:43.709Z,10.89
2022-12-08T22:31:46.819Z,11.44
2022-12-08T22:32:50.491Z,8.00
2022-12-08T22:33:53.146Z,9.20
2022-12-08T22:34:56.281Z,11.70
2022-12-08T22:36:06.301Z,9.10
2022-12-08T22:37:05.733Z,10.30
2022-12-08T22:38:08.340Z,9.50
2022-12-08T22:39:10.486Z,9.22
2022-12-08T22:40:14.524Z,10.30
2022-12-08T22:41:18.270Z,10.27
2022-12-08T22:42:21.412Z,8.80
2022-12-08T22:43:23.860Z,9.20
2022-12-08T22:44:26.788Z,8.10
2022-12-08T22:45:28.839Z,8.50
2022-12-08T22:46:31.261Z,9.00
2022-12-08T22:47:34.462Z,10.80
2022-12-08T22:48:38.018Z,10.09
2022-12-08T22:49:40.015Z,10.30
2022-12-08T22:50:42.913Z,7.10
2022-12-08T22:51:45.086Z,11.80
2022-12-08T22:52:46.910Z,9.40
2022-12-08T22:53:50.392Z,10.22
2022-12-08T22:54:52.496Z,11.10
2022-12-08T22:55:54.674Z,12.40
2022-12-08T22:56:56.713Z,10.50
2022-12-08T22:57:58.863Z,11.50
2022-12-08T22:59:00.568Z,10.30
2022-12-08T23:00:05.206Z,12.00
2022-12-08T23:01:08.061Z,11.10
2022-12-08T23:02:10.149Z,10.90
2022-12-08T23:03:13.004Z,9.20
2022-12-08T23:04:18.039Z,7.40
2022-12-08T23:05:19.320Z,10.60
2022-12-08T23:06:22.097Z,11.20
2022-12-08T23:07:24.333Z,11.50
2022-12-08T23:08:26.657Z,12.11
2022-12-08T23:09:28.514Z,6.00
2022-12-08T23:10:31.923Z,11.22
2022-12-08T23:11:34.954Z,10.10
2022-12-08T23:12:37.011Z,10.10
2022-12-08T23:13:39.946Z,12.00
2022-12-08T23:14:41.946Z,12.10
2022-12-08T23:15:44.574Z,11.70
2022-12-08T23:16:46.694Z,9.90
2022-12-08T23:17:50.132Z,11.90
2022-12-08T23:18:52.397Z,12.20
2022-12-08T23:19:56.868Z,11.70
2022-12-08T23:21:07.796Z,12.10
2022-12-08T23:22:10.149Z,11.60
2022-12-08T23:23:13.034Z,13.30
2022-12-08T23:24:15.440Z,11.27
2022-12-08T23:25:17.525Z,9.20
2022-12-08T23:26:23.848Z,12.60
2022-12-08T23:27:26.292Z,11.60
2022-12-08T23:28:28.761Z,11.80
2022-12-08T23:29:30.660Z,12.20
2022-12-08T23:30:33.065Z,11.30
2022-12-08T23:31:36.988Z,9.60
2022-12-08T23:32:39.301Z,9.90
2022-12-08T23:33:42.855Z,12.10
2022-12-08T23:34:45.375Z,6.80
2022-12-08T23:35:50.814Z,12.50
2022-12-08T23:36:54.900Z,12.70
2022-12-08T23:37:56.781Z,12.20
2022-12-08T23:38:58.761Z,12.60
2022-12-08T23:40:00.598Z,10.33
2022-12-08T23:41:05.472Z,11.33
2022-12-08T23:42:08.137Z,12.00
2022-12-08T23:43:10.076Z,11.70
2022-12-08T23:44:11.890Z,10.56
2022-12-08T23:45:13.722Z,11.22
2022-12-08T23:46:18.478Z,8.89
2022-12-08T23:47:20.906Z,11.60
2022-12-08T23:48:23.166Z,13.30
2022-12-08T23:49:25.269Z,10.40
2022-12-08T23:50:27.684Z,13.70
2022-12-08T23:51:30.185Z,10.60
2022-12-08T23:52:32.150Z,10.10
2022-12-08T23:53:34.635Z,9.22
2022-12-08T23:54:36.550Z,11.90
2022-12-08T23:55:38.437Z,11.89
2022-12-08T23:56:40.847Z,11.40
2022-12-08T23:57:43.114Z,8.20
2022-12-08T23:58:45.964Z,12.90
2022-12-08T23:59:48.118Z,7.82
